Time;durP1;ratioP1;P1;durP2;ratioP2;P2;SDS_P1;SDS_P2;PMS_P1;PMS_P2;Temp;Humidity;BMP_temperature;BMP_pressure;BME280_temperature;BME280_humidity;BME280_pressure;Samples;Min_cycle;Max_cycle;Signal;HPM_P1;HPM_P2
2021/10/27 00:00:48;;;;;;;11.98;6.90;;;;;;;9.29;78.88;96656.66;5069027;28;20094;-55
2021/10/27 00:03:15;;;;;;;8.15;5.45;;;;;;;9.31;78.66;96651.75;5070291;28;20044;-51
2021/10/27 00:05:42;;;;;;;8.05;5.93;;;;;;;9.32;78.02;96651.44;5054367;28;20043;-54
2021/10/27 00:08:09;;;;;;;10.82;6.72;;;;;;;9.41;77.87;96658.81;5066891;28;20066;-55
2021/10/27 00:10:36;;;;;;;9.68;6.53;;;;;;;9.44;77.55;96650.91;5071721;28;20040;-53
2021/10/27 00:13:05;;;;;;;11.60;6.85;;;;;;;9.49;77.34;96656.19;5051626;28;20490;-55
2021/10/27 00:15:33;;;;;;;15.18;7.70;;;;;;;9.43;77.25;96646.59;5069929;28;20093;-49
2021/10/27 00:18:00;;;;;;;10.27;6.60;;;;;;;9.46;77.38;96656.81;5053568;28;20109;-52
2021/10/27 00:20:28;;;;;;;9.38;6.82;;;;;;;9.40;77.72;96651.84;5054448;28;20048;-52
2021/10/27 00:22:55;;;;;;;9.98;7.05;;;;;;;9.46;77.53;96656.00;5065410;28;20075;-51
2021/10/27 00:25:22;;;;;;;8.43;5.82;;;;;;;9.41;77.70;96662.31;5061875;28;20041;-54
2021/10/27 00:27:50;;;;;;;9.13;6.30;;;;;;;9.26;77.83;96657.25;5068441;28;20050;-51
2021/10/27 00:30:17;;;;;;;9.68;7.00;;;;;;;9.25;77.91;96661.06;5059368;28;20076;-49
2021/10/27 00:32:45;;;;;;;8.75;6.85;;;;;;;9.36;77.54;96659.75;5054837;28;20059;-52
2021/10/27 00:35:12;;;;;;;11.30;6.38;;;;;;;9.41;77.46;96661.53;5058449;28;20044;-51
2021/10/27 00:37:39;;;;;;;9.88;6.43;;;;;;;9.33;77.49;96655.75;5070014;28;20045;-52
2021/10/27 00:40:07;;;;;;;9.13;6.68;;;;;;;9.35;77.47;96667.03;5050223;28;20080;-53
2021/10/27 00:42:34;;;;;;;7.97;5.80;;;;;;;9.35;77.49;96671.63;5051003;28;20068;-55
2021/10/27 00:45:02;;;;;;;10.25;5.93;;;;;;;9.33;77.44;96663.84;5066296;28;20045;-52
2021/10/27 00:47:29;;;;;;;10.65;6.43;;;;;;;9.33;77.31;96668.47;5069847;28;20077;-53
2021/10/27 00:49:56;;;;;;;9.90;6.68;;;;;;;9.34;77.43;96664.66;5063917;28;20049;-54
2021/10/27 00:52:23;;;;;;;10.60;6.45;;;;;;;9.38;77.20;96671.03;5067541;28;20065;-54
2021/10/27 00:54:51;;;;;;;9.55;6.25;;;;;;;9.30;77.56;96664.47;5068548;28;20395;-54
2021/10/27 00:57:21;;;;;;;9.93;6.75;;;;;;;9.24;77.44;96664.88;5062476;28;20053;-54
2021/10/27 00:59:48;;;;;;;9.85;6.35;;;;;;;9.24;77.53;96662.97;5061535;28;20037;-55
2021/10/27 01:02:17;;;;;;;9.57;6.57;;;;;;;9.22;77.34;96664.38;5058676;28;20132;-54
2021/10/27 01:04:46;;;;;;;8.15;5.57;;;;;;;9.30;77.35;96663.66;5070060;28;20128;-51
2021/10/27 01:07:14;;;;;;;10.27;6.43;;;;;;;9.18;77.94;96663.41;5071625;28;20040;-49
2021/10/27 01:09:42;;;;;;;7.35;5.45;;;;;;;9.13;77.89;96662.44;5072842;28;20123;-49
2021/10/27 01:12:09;;;;;;;12.57;7.03;;;;;;;9.15;78.06;96650.50;5074841;28;20094;-55
2021/10/27 01:14:47;;;;;;;8.35;5.90;;;;;;;9.23;77.39;96647.06;5069426;28;20086;-53
2021/10/27 01:17:17;;;;;;;9.68;6.05;;;;;;;9.11;77.83;96653.81;5072942;28;20095;-53
2021/10/27 01:19:48;;;;;;;11.25;5.90;;;;;;;9.20;77.45;96653.09;5061210;28;20107;-50
2021/10/27 01:22:16;;;;;;;9.13;6.03;;;;;;;9.17;77.42;96653.72;5066051;28;20037;-54
2021/10/27 01:24:44;;;;;;;9.45;6.20;;;;;;;9.15;77.21;96645.13;5073552;28;20094;-52
2021/10/27 01:27:12;;;;;;;9.55;6.20;;;;;;;9.21;76.77;96650.09;5069767;28;20072;-54
2021/10/27 01:29:38;;;;;;;10.52;6.20;;;;;;;9.29;76.49;96651.25;5055116;28;20045;-52
2021/10/27 01:32:07;;;;;;;8.68;5.82;;;;;;;9.32;75.93;96650.63;5054472;28;20041;-52
2021/10/27 01:34:36;;;;;;;9.75;6.13;;;;;;;9.10;76.08;96651.44;5053362;28;20136;-54
2021/10/27 01:37:03;;;;;;;9.15;5.57;;;;;;;9.05;76.52;96652.34;5054997;28;20474;-54
2021/10/27 01:39:30;;;;;;;8.75;5.68;;;;;;;9.04;76.59;96650.75;5066786;28;20510;-54
2021/10/27 01:41:57;;;;;;;9.88;5.50;;;;;;;9.22;76.55;96650.88;5065799;28;20064;-54
2021/10/27 01:44:24;;;;;;;10.18;6.35;;;;;;;8.86;78.26;96643.59;5064371;28;20040;-54
2021/10/27 01:46:51;;;;;;;9.70;5.88;;;;;;;8.58;79.87;96643.66;5063610;28;20040;-52
2021/10/27 01:49:18;;;;;;;8.60;5.60;;;;;;;8.54;79.97;96641.84;5061785;28;20162;-54
2021/10/27 01:51:46;;;;;;;7.95;5.40;;;;;;;8.76;78.59;96649.22;5074175;28;20406;-54
2021/10/27 01:54:13;;;;;;;7.30;4.93;;;;;;;8.72;78.66;96654.41;5065162;28;20048;-55
2021/10/27 01:56:40;;;;;;;8.48;5.28;;;;;;;8.84;77.61;96652.00;5053938;28;20048;-53
2021/10/27 01:59:07;;;;;;;10.52;5.60;;;;;;;8.73;77.70;96652.50;5061087;28;20387;-54
2021/10/27 02:01:35;;;;;;;8.38;5.05;;;;;;;8.83;77.26;96649.59;5071871;28;20574;-54
2021/10/27 02:04:02;;;;;;;6.80;5.15;;;;;;;8.70;77.95;96653.13;5070661;28;20045;-54
2021/10/27 02:06:29;;;;;;;7.25;4.70;;;;;;;8.58;78.24;96640.94;5052558;28;20044;-54
2021/10/27 02:08:57;;;;;;;7.43;4.95;;;;;;;8.76;77.53;96644.59;5068929;28;20043;-55
2021/10/27 02:11:24;;;;;;;7.72;4.97;;;;;;;8.72;76.78;96646.31;5073601;28;20044;-52
2021/10/27 02:13:53;;;;;;;8.18;4.97;;;;;;;8.70;76.68;96639.63;5073455;28;20147;-50
2021/10/27 02:16:22;;;;;;;6.78;5.20;;;;;;;8.92;76.24;96645.06;5072742;28;20045;-52
2021/10/27 02:18:50;;;;;;;7.60;4.50;;;;;;;8.98;75.98;96651.97;5054857;28;20454;-52
2021/10/27 02:21:18;;;;;;;7.65;5.03;;;;;;;8.98;75.17;96649.25;5054419;28;20045;-54
2021/10/27 02:23:45;;;;;;;6.63;4.85;;;;;;;9.03;75.15;96642.94;5059151;28;20041;-53
2021/10/27 02:26:14;;;;;;;10.73;4.93;;;;;;;9.01;75.03;96645.16;5061738;28;20098;-54
2021/10/27 02:28:42;;;;;;;7.20;4.85;;;;;;;9.09;74.81;96644.44;5071970;28;20044;-55
2021/10/27 02:31:09;;;;;;;6.97;4.10;;;;;;;9.12;74.73;96652.72;5071625;28;20040;-54
2021/10/27 02:33:36;;;;;;;6.40;4.53;;;;;;;9.02;74.91;96650.25;5071520;28;20083;-54
2021/10/27 02:36:04;;;;;;;6.82;4.68;;;;;;;9.01;74.49;96658.66;5070404;28;20465;-55
2021/10/27 02:38:42;;;;;;;7.15;4.30;;;;;;;8.98;74.15;96660.06;5067190;28;20055;-54
2021/10/27 02:41:12;;;;;;;6.57;4.57;;;;;;;8.91;74.24;96654.28;5057982;28;20140;-55
2021/10/27 02:43:40;;;;;;;6.93;4.40;;;;;;;8.77;75.09;96658.88;5053174;28;20517;-54
2021/10/27 02:46:09;;;;;;;7.18;4.63;;;;;;;8.88;74.43;96663.78;5053043;28;20071;-52
2021/10/27 02:48:36;;;;;;;6.50;4.18;;;;;;;8.88;74.25;96652.19;5066568;28;20054;-55
2021/10/27 02:51:03;;;;;;;6.55;4.55;;;;;;;8.93;73.81;96660.16;5067382;28;20127;-53
2021/10/27 02:53:31;;;;;;;6.00;4.03;;;;;;;8.88;74.39;96657.59;5072693;28;20041;-55
2021/10/27 02:55:58;;;;;;;6.53;4.65;;;;;;;8.78;74.60;96655.13;5071089;28;20486;-55
2021/10/27 02:58:25;;;;;;;5.47;3.92;;;;;;;8.79;74.72;96659.41;5070380;28;20041;-54
2021/10/27 03:00:52;;;;;;;5.10;3.65;;;;;;;8.90;74.29;96652.66;5062379;28;20041;-54
2021/10/27 03:03:19;;;;;;;6.10;3.92;;;;;;;8.88;74.39;96652.97;5069260;28;20045;-55
2021/10/27 03:05:46;;;;;;;5.57;3.83;;;;;;;8.92;73.84;96661.28;5056486;28;20037;-54
2021/10/27 03:08:13;;;;;;;7.13;3.83;;;;;;;8.65;74.97;96675.59;5064977;28;20109;-54
2021/10/27 03:10:40;;;;;;;5.50;3.40;;;;;;;8.58;74.71;96659.84;5063169;28;20036;-54
2021/10/27 03:13:07;;;;;;;6.00;3.70;;;;;;;8.59;75.00;96666.81;5059903;28;20148;-55
2021/10/27 03:15:34;;;;;;;5.65;3.70;;;;;;;8.50;74.85;96668.63;5072411;28;20041;-55
2021/10/27 03:18:01;;;;;;;6.10;3.90;;;;;;;8.44;76.23;96669.81;5059152;28;20080;-52
2021/10/27 03:20:28;;;;;;;5.35;3.50;;;;;;;8.55;75.51;96670.44;5071388;28;20123;-54
2021/10/27 03:22:55;;;;;;;4.93;3.45;;;;;;;8.49;75.14;96675.13;5058352;28;20080;-54
2021/10/27 03:25:22;;;;;;;4.95;3.70;;;;;;;8.68;73.90;96675.00;5060104;28;20128;-55
2021/10/27 03:27:49;;;;;;;5.25;3.80;;;;;;;8.45;75.83;96674.13;5054263;28;20564;-54
2021/10/27 03:30:16;;;;;;;4.60;3.30;;;;;;;8.54;75.73;96675.00;5056749;28;20520;-52
2021/10/27 03:32:43;;;;;;;6.93;4.00;;;;;;;8.25;77.22;96671.78;5064251;28;20072;-54
2021/10/27 03:35:11;;;;;;;4.78;3.42;;;;;;;8.39;75.96;96672.63;5061381;28;20040;-55
2021/10/27 03:37:38;;;;;;;5.22;3.20;;;;;;;8.39;75.97;96661.84;5062607;28;20036;-53
2021/10/27 03:40:06;;;;;;;5.82;3.50;;;;;;;8.56;75.07;96670.13;5063876;28;20049;-52
2021/10/27 03:42:33;;;;;;;5.40;3.42;;;;;;;8.52;74.57;96671.81;5051977;28;20071;-52
2021/10/27 03:45:00;;;;;;;6.30;3.50;;;;;;;8.55;73.96;96665.81;5064681;28;20127;-51
2021/10/27 03:47:27;;;;;;;5.50;3.50;;;;;;;8.50;74.01;96674.00;5057906;28;20402;-53
2021/10/27 03:49:54;;;;;;;5.50;3.88;;;;;;;8.60;73.49;96673.81;5069475;28;20351;-54
2021/10/27 03:52:22;;;;;;;5.68;3.67;;;;;;;8.42;74.16;96677.41;5061992;28;20515;-52
2021/10/27 03:54:49;;;;;;;7.32;3.90;;;;;;;8.34;74.41;96669.97;5056688;28;20049;-53
2021/10/27 03:57:16;;;;;;;5.43;3.70;;;;;;;8.24;74.93;96670.19;5053242;28;20486;-50
2021/10/27 03:59:43;;;;;;;7.10;3.75;;;;;;;8.17;74.54;96674.06;5052007;28;20135;-52
2021/10/27 04:02:10;;;;;;;5.38;3.67;;;;;;;8.11;75.20;96677.16;5056092;28;20413;-54
2021/10/27 04:04:37;;;;;;;5.57;3.70;;;;;;;8.27;74.42;96681.16;5052564;28;20548;-53
2021/10/27 04:07:04;;;;;;;7.95;4.75;;;;;;;8.34;73.83;96675.38;5055158;28;20059;-52
2021/10/27 04:09:31;;;;;;;5.50;3.75;;;;;;;8.38;73.22;96677.22;5065052;28;20116;-54
2021/10/27 04:11:58;;;;;;;5.10;3.75;;;;;;;8.40;73.23;96679.59;5065625;28;20135;-54
2021/10/27 04:14:28;;;;;;;5.22;3.40;;;;;;;8.34;73.74;96675.38;5071426;28;20051;-53
2021/10/27 04:16:55;;;;;;;4.90;3.30;;;;;;;8.41;73.27;96683.88;5071198;28;20115;-49
2021/10/27 04:19:22;;;;;;;5.30;3.67;;;;;;;8.46;72.87;96683.81;5068800;28;20120;-53
2021/10/27 04:21:50;;;;;;;6.38;3.88;;;;;;;8.46;72.78;96691.09;5069457;28;20131;-54
2021/10/27 04:24:17;;;;;;;4.97;3.50;;;;;;;8.39;72.88;96688.81;5062599;28;20384;-54
2021/10/27 04:26:45;;;;;;;5.80;3.80;;;;;;;8.48;72.68;96696.97;5070665;28;20087;-54
2021/10/27 04:29:11;;;;;;;4.80;3.47;;;;;;;8.00;74.48;96698.13;5061267;28;20483;-51
2021/10/27 04:31:38;;;;;;;6.85;3.28;;;;;;;7.97;75.14;96693.31;5064870;28;20585;-53
2021/10/27 04:34:06;;;;;;;6.85;3.40;;;;;;;8.05;74.81;96695.31;5049940;28;20406;-51
2021/10/27 04:36:33;;;;;;;4.65;3.47;;;;;;;8.14;74.75;96692.75;5058914;28;20128;-53
2021/10/27 04:39:00;;;;;;;5.63;3.40;;;;;;;8.15;74.38;96689.72;5060280;28;20143;-54
2021/10/27 04:41:27;;;;;;;5.70;3.88;;;;;;;8.13;74.31;96681.16;5061344;28;20106;-54
2021/10/27 04:43:54;;;;;;;7.50;3.80;;;;;;;8.23;73.82;96680.16;5054677;28;20483;-51
2021/10/27 04:46:21;;;;;;;6.60;3.58;;;;;;;8.19;73.98;96689.97;5058688;28;20036;-54
2021/10/27 04:48:48;;;;;;;7.15;3.97;;;;;;;8.08;74.03;96683.94;5074573;28;20427;-53
2021/10/27 04:51:15;;;;;;;5.75;3.60;;;;;;;7.85;74.18;96684.91;5071648;28;20044;-54
2021/10/27 04:53:41;;;;;;;5.88;4.10;;;;;;;8.04;73.58;96688.34;5068413;28;20056;-50
2021/10/27 04:56:08;;;;;;;7.32;3.97;;;;;;;7.98;73.33;96684.13;5056590;28;20037;-55
2021/10/27 04:58:35;;;;;;;6.45;3.65;;;;;;;7.98;73.65;96697.59;5063066;28;20048;-54
2021/10/27 05:01:02;;;;;;;6.47;3.90;;;;;;;7.93;73.90;96686.94;5067982;28;20047;-53
2021/10/27 05:03:30;;;;;;;5.68;3.40;;;;;;;7.97;73.82;96690.63;5054592;28;20068;-55
2021/10/27 05:05:57;;;;;;;4.53;3.10;;;;;;;8.00;73.95;96689.22;5059551;28;20127;-55
2021/10/27 05:08:24;;;;;;;5.50;3.55;;;;;;;8.01;74.12;96699.69;5071437;28;20449;-55
2021/10/27 05:10:53;;;;;;;6.13;3.63;;;;;;;7.83;74.74;96692.47;5072216;28;20033;-55
2021/10/27 05:13:20;;;;;;;6.25;3.67;;;;;;;7.65;75.39;96694.13;5074953;28;20049;-53
2021/10/27 05:15:48;;;;;;;6.45;3.85;;;;;;;7.74;75.31;96695.06;5074767;28;20064;-54
2021/10/27 05:18:16;;;;;;;6.97;4.07;;;;;;;7.84;74.85;96696.78;5072548;28;20053;-53
2021/10/27 05:20:44;;;;;;;6.57;4.18;;;;;;;7.70;75.13;96702.09;5074579;28;20076;-55
2021/10/27 05:23:12;;;;;;;8.93;4.03;;;;;;;7.60;75.60;96696.88;5062070;28;20079;-53
2021/10/27 05:25:39;;;;;;;9.27;3.83;;;;;;;7.66;75.38;96693.81;5072239;28;20124;-55
2021/10/27 05:28:06;;;;;;;5.88;3.35;;;;;;;7.69;75.05;96695.91;5073305;28;20460;-54
2021/10/27 05:30:33;;;;;;;6.00;3.58;;;;;;;7.81;75.01;96694.69;5060946;28;20498;-54
2021/10/27 05:33:00;;;;;;;6.13;3.65;;;;;;;7.68;75.51;96702.41;5072471;28;20497;-55
2021/10/27 05:35:29;;;;;;;6.57;3.90;;;;;;;7.62;75.69;96698.19;5072122;28;20045;-55
2021/10/27 05:37:57;;;;;;;7.22;4.22;;;;;;;7.57;75.66;96706.38;5063113;28;20154;-50
2021/10/27 05:40:24;;;;;;;8.48;3.70;;;;;;;7.60;75.93;96699.59;5068484;28;20064;-55
2021/10/27 05:42:51;;;;;;;5.70;3.45;;;;;;;7.55;75.94;96715.84;5060220;28;20041;-53
2021/10/27 05:45:22;;;;;;;6.13;3.58;;;;;;;7.66;76.12;96715.38;5064625;28;20502;-51
2021/10/27 05:47:56;;;;;;;5.72;3.30;;;;;;;7.62;76.22;96708.19;5054241;28;20127;-51
2021/10/27 05:55:36;;;;;;;5.18;3.33;;;;;;;7.66;76.37;96712.66;5061770;28;20453;-51
2021/10/27 05:58:05;;;;;;;6.20;3.67;;;;;;;7.71;76.28;96717.19;5056175;28;20048;-54
2021/10/27 06:00:32;;;;;;;8.02;3.50;;;;;;;7.81;75.89;96716.22;5067760;28;20047;-55
2021/10/27 06:03:01;;;;;;;8.27;3.70;;;;;;;7.81;75.72;96721.63;5054908;28;20498;-50
2021/10/27 06:05:30;;;;;;;8.85;3.70;;;;;;;7.75;75.69;96714.72;5054437;28;20128;-50
2021/10/27 06:07:58;;;;;;;9.27;3.70;;;;;;;7.73;76.05;96726.59;5056022;28;20647;-50
2021/10/27 06:10:26;;;;;;;9.40;4.25;;;;;;;7.75;75.91;96722.78;5055666;28;20516;-53
2021/10/27 06:13:03;;;;;;;7.82;3.72;;;;;;;7.81;75.79;96727.00;5071729;28;20040;-52
2021/10/27 06:15:30;;;;;;;10.30;5.07;;;;;;;7.71;75.89;96719.88;5075662;28;20424;-50
2021/10/27 06:17:59;;;;;;;9.07;3.83;;;;;;;7.68;76.20;96726.66;5068782;28;20116;-52
2021/10/27 06:20:26;;;;;;;7.95;3.92;;;;;;;7.61;76.35;96715.47;5053342;28;20041;-54
2021/10/27 06:22:53;;;;;;;6.93;4.38;;;;;;;7.66;76.44;96717.25;5073593;28;20041;-51
2021/10/27 06:25:20;;;;;;;10.25;4.25;;;;;;;7.72;76.24;96724.16;5073237;28;20122;-54
2021/10/27 06:27:52;;;;;;;11.98;4.63;;;;;;;7.61;76.53;96734.31;5073499;28;20098;-53
2021/10/27 06:30:43;;;;;;;9.60;4.22;;;;;;;7.68;76.70;96744.72;5071543;28;20502;-52
2021/10/27 06:33:59;;;;;;;8.07;4.78;;;;;;;7.52;77.44;96736.06;5072238;28;20447;-55
2021/10/27 06:36:15;;;;;;;7.43;4.18;;;;;;;7.54;78.03;96744.66;5069485;28;20052;-54
2021/10/27 06:47:02;;;;;;;8.40;3.72;;;;;;;6.86;82.30;96755.78;5053204;28;20041;-50
2021/10/27 06:49:30;;;;;;;17.05;5.80;;;;;;;7.12;81.42;96757.09;5066647;28;20045;-52
2021/10/27 06:52:03;;;;;;;15.73;7.40;;;;;;;7.26;80.97;96749.91;5073230;28;20045;-53
2021/10/27 06:54:29;;;;;;;12.95;5.43;;;;;;;7.89;78.50;96748.66;5071547;28;20075;-50
2021/10/27 06:56:56;;;;;;;10.75;4.65;;;;;;;8.17;77.36;96754.13;5073106;28;20417;-55
2021/10/27 06:59:30;;;;;;;10.18;4.30;;;;;;;8.14;77.35;96755.53;5076889;28;20046;-51
2021/10/27 07:14:58;;;;;;;10.05;4.80;;;;;;;7.72;79.91;96761.88;5075355;28;20106;-53
2021/10/27 07:15:23;;;;;;;10.10;4.97;;;;;;;8.00;78.97;96762.78;5072598;28;20043;-54
2021/10/27 07:17:53;;;;;;;10.50;5.15;;;;;;;7.92;79.64;96760.75;5064759;28;20054;-54
2021/10/27 07:20:23;;;;;;;13.27;5.50;;;;;;;7.90;80.24;96762.97;5067435;28;20417;-55
2021/10/27 07:22:50;;;;;;;8.07;4.68;;;;;;;7.73;81.45;96761.59;5070586;28;20072;-54
2021/10/27 07:25:17;;;;;;;10.00;5.10;;;;;;;7.66;82.24;96750.38;5070727;28;20617;-54
2021/10/27 07:27:46;;;;;;;7.72;4.38;;;;;;;7.50;82.39;96757.88;5070783;28;20062;-55
2021/10/27 07:30:13;;;;;;;7.80;3.67;;;;;;;7.46;82.62;96761.47;5070873;28;20071;-52
2021/10/27 07:32:40;;;;;;;8.82;4.05;;;;;;;7.60;82.43;96756.94;5072046;28;20048;-52
2021/10/27 07:40:38;;;;;;;6.85;2.67;;;;;;;7.73;81.19;96767.00;5071808;28;20044;-55
2021/10/27 07:43:12;;;;;;;5.43;2.55;;;;;;;7.73;81.45;96769.69;5070632;28;20417;-51
2021/10/27 07:45:40;;;;;;;7.43;2.80;;;;;;;7.85;81.56;96763.03;5072091;28;20417;-54
2021/10/27 07:48:09;;;;;;;5.38;2.55;;;;;;;7.74;81.35;96762.41;5070727;28;20131;-53
2021/10/27 07:50:37;;;;;;;4.72;2.55;;;;;;;7.70;81.18;96753.28;5071815;28;20580;-54
2021/10/27 07:53:07;;;;;;;7.13;2.75;;;;;;;7.69;82.14;96751.69;5071627;28;20139;-53
2021/10/27 07:55:44;;;;;;;3.88;2.42;;;;;;;7.90;81.91;96752.97;5072090;28;20166;-53
2021/10/27 07:58:13;;;;;;;6.53;2.80;;;;;;;8.35;79.38;96758.69;5070622;28;20040;-54
2021/10/27 08:00:42;;;;;;;5.38;3.20;;;;;;;8.53;77.59;96765.13;5069292;28;20071;-49
2021/10/27 08:03:10;;;;;;;6.40;3.83;;;;;;;8.23;79.21;96758.34;5069996;28;20052;-52
2021/10/27 08:05:42;;;;;;;5.15;3.05;;;;;;;8.13;79.53;96759.34;5070992;28;20050;-50
2021/10/27 08:08:13;;;;;;;7.97;3.15;;;;;;;8.16;80.28;96760.63;5066288;28;20061;-48
2021/10/27 08:10:41;;;;;;;7.10;3.45;;;;;;;8.24;79.10;96762.63;5069817;28;20044;-49
2021/10/27 08:13:09;;;;;;;9.93;3.97;;;;;;;8.10;79.10;96762.63;5064473;28;20044;-51
2021/10/27 08:15:42;;;;;;;7.07;3.80;;;;;;;8.42;78.75;96761.00;5059327;28;20040;-49
2021/10/27 08:18:11;;;;;;;12.32;4.07;;;;;;;8.51;78.00;96751.13;5064335;28;20538;-53
2021/10/27 08:20:39;;;;;;;7.65;3.50;;;;;;;8.57;78.12;96754.53;5065943;28;20562;-55
2021/10/27 08:23:10;;;;;;;6.03;4.03;;;;;;;8.55;78.54;96751.34;5074009;28;20444;-54
2021/10/27 08:25:50;;;;;;;7.90;4.13;;;;;;;8.77;78.65;96754.13;5059752;28;20068;-54
2021/10/27 08:28:22;;;;;;;6.78;3.90;;;;;;;8.79;78.57;96751.13;5069619;28;20037;-53
2021/10/27 08:33:21;;;;;;;5.93;4.10;;;;;;;9.09;78.02;96750.50;5068800;28;20049;-50
2021/10/27 08:35:52;;;;;;;9.60;4.50;;;;;;;9.01;78.47;96742.34;5071567;28;20041;-50
2021/10/27 08:38:19;;;;;;;18.00;4.57;;;;;;;8.87;79.11;96748.53;5069407;28;20063;-51
2021/10/27 08:40:47;;;;;;;9.77;5.40;;;;;;;8.86;79.15;96746.13;5070183;28;20036;-49
2021/10/27 08:43:14;;;;;;;8.82;5.43;;;;;;;8.87;79.80;96745.84;5071066;28;20071;-49
2021/10/27 08:45:43;;;;;;;10.27;4.70;;;;;;;8.93;79.72;96740.31;5070199;28;20048;-48
2021/10/27 08:48:12;;;;;;;8.43;5.05;;;;;;;9.01;79.95;96732.34;5069593;28;20062;-50
2021/10/27 08:50:40;;;;;;;7.13;4.28;;;;;;;9.06;79.81;96737.59;5070069;28;20044;-53
2021/10/27 08:53:15;;;;;;;9.77;4.95;;;;;;;9.28;79.33;96752.28;5069941;28;20131;-48
2021/10/27 08:55:46;;;;;;;7.95;5.80;;;;;;;9.43;79.18;96746.53;5071262;28;20048;-48
2021/10/27 08:58:21;;;;;;;9.55;5.53;;;;;;;9.61;78.54;96747.47;5068293;28;20049;-52
2021/10/27 09:03:45;;;;;;;16.55;7.43;;;;;;;9.69;78.68;96746.75;5070155;28;20469;-52
2021/10/27 09:36:20;;;;;;;11.15;7.40;;;;;;;10.30;77.66;96725.53;5061316;28;20068;-50
2021/10/27 10:06:52;;;;;;;12.20;7.60;;;;;;;10.72;76.56;96729.56;5063553;28;20455;-51
2021/10/27 10:09:19;;;;;;;11.45;7.07;;;;;;;10.95;75.33;96729.44;5067546;28;20047;-54
2021/10/27 10:11:49;;;;;;;13.65;7.50;;;;;;;10.85;76.24;96724.31;5035469;28;20589;-54
2021/10/27 10:14:18;;;;;;;13.40;8.05;;;;;;;11.09;75.26;96715.78;5053281;28;20044;-52
2021/10/27 10:16:50;;;;;;;13.32;7.40;;;;;;;11.25;74.96;96722.34;5053506;28;20417;-53
2021/10/27 10:19:23;;;;;;;12.20;7.38;;;;;;;11.22;75.21;96726.47;5069406;28;20498;-51
2021/10/27 10:21:53;;;;;;;14.70;9.57;;;;;;;11.54;73.44;96710.88;5073548;28;20044;-54
2021/10/27 10:24:25;;;;;;;14.50;7.55;;;;;;;11.50;73.72;96719.94;5073165;28;20040;-55
2021/10/27 10:26:57;;;;;;;10.27;7.03;;;;;;;11.37;74.77;96717.06;5053994;28;20461;-54
2021/10/27 10:29:55;;;;;;;11.55;7.82;;;;;;;11.74;73.09;96719.50;5073467;28;20127;-52
2021/10/27 10:32:34;;;;;;;10.30;6.35;;;;;;;11.65;74.09;96714.06;5070288;28;20057;-54
2021/10/27 10:35:17;;;;;;;12.38;7.43;;;;;;;11.69;74.31;96717.72;5068999;28;20049;-51
2021/10/27 10:40:27;;;;;;;14.05;7.45;;;;;;;11.82;74.04;96713.25;5067040;28;20045;-53
2021/10/27 11:04:01;;;;;;;12.43;7.40;;;;;;;12.97;70.71;96683.50;5072383;28;20123;-53
2021/10/27 11:22:27;;;;;;;12.80;6.00;;;;;;;14.04;66.79;96662.97;5072861;28;20139;-57
2021/10/27 11:40:15;;;;;;;9.68;6.25;;;;;;;14.93;65.10;96641.38;5058586;28;20048;-53
2021/10/27 11:42:49;;;;;;;8.45;5.40;;;;;;;15.12;64.16;96642.72;5060012;28;20472;-50
2021/10/27 11:48:06;;;;;;;10.07;6.90;;;;;;;15.36;60.84;96629.00;5070946;28;20033;-50
2021/10/27 11:50:39;;;;;;;8.45;6.07;;;;;;;15.29;61.53;96628.00;5065956;28;20120;-50
2021/10/27 11:53:23;;;;;;;8.85;6.05;;;;;;;15.34;62.21;96617.66;5050383;28;20049;-54
2021/10/27 11:55:51;;;;;;;9.20;5.72;;;;;;;15.37;61.66;96618.88;5060793;28;20068;-51
2021/10/27 11:58:23;;;;;;;11.02;6.20;;;;;;;15.34;62.17;96612.22;5071748;28;20040;-54
2021/10/27 12:01:00;;;;;;;10.35;6.18;;;;;;;15.33;62.31;96612.53;5070104;28;20433;-53
2021/10/27 12:03:42;;;;;;;8.57;6.25;;;;;;;15.69;61.79;96616.28;5052434;28;20099;-50
2021/10/27 12:17:36;;;;;;;9.77;5.97;;;;;;;15.76;58.67;96595.47;5058290;28;20048;-51
2021/10/27 12:20:04;;;;;;;10.07;6.25;;;;;;;15.73;59.88;96595.34;5071700;28;20127;-54
2021/10/27 12:22:35;;;;;;;6.75;5.00;;;;;;;15.76;60.19;96591.91;5065730;28;20048;-53
2021/10/27 12:25:08;;;;;;;10.02;5.72;;;;;;;15.68;59.21;96582.75;5051202;28;20135;-53
2021/10/27 12:27:42;;;;;;;8.35;4.97;;;;;;;15.77;59.92;96577.94;5054870;28;20486;-52
2021/10/27 12:30:17;;;;;;;6.85;5.03;;;;;;;16.01;56.56;96576.97;5055317;28;20036;-55
2021/10/27 12:32:57;;;;;;;6.75;5.00;;;;;;;15.66;57.83;96571.38;5064579;28;20051;-49
2021/10/27 12:35:25;;;;;;;6.78;4.45;;;;;;;15.45;59.22;96574.31;5051655;28;20426;-50
2021/10/27 12:38:05;;;;;;;7.53;5.05;;;;;;;15.12;59.85;96567.19;5052909;28;20098;-51
2021/10/27 12:40:46;;;;;;;7.57;4.50;;;;;;;14.93;61.83;96567.81;5061267;28;20048;-53
2021/10/27 12:43:19;;;;;;;9.85;6.43;;;;;;;14.63;62.88;96566.50;5057354;28;20044;-55
2021/10/27 12:45:54;;;;;;;11.40;5.82;;;;;;;14.76;62.03;96570.00;5067663;28;20053;-55
2021/10/27 12:48:24;;;;;;;10.98;6.00;;;;;;;14.48;63.06;96559.78;5070148;28;20123;-51
2021/10/27 12:50:54;;;;;;;8.25;5.80;;;;;;;14.16;64.61;96570.44;5058038;28;20059;-51
2021/10/27 12:53:42;;;;;;;10.35;5.55;;;;;;;14.17;63.73;96555.72;5053209;28;20068;-52
2021/10/27 12:56:17;;;;;;;8.55;5.35;;;;;;;14.07;64.65;96564.34;5070247;28;20055;-51
2021/10/27 12:58:53;;;;;;;8.43;5.78;;;;;;;14.25;63.91;96564.91;5063757;28;20033;-53
2021/10/27 13:01:28;;;;;;;10.45;6.00;;;;;;;14.08;64.84;96559.69;5065014;28;20075;-52
2021/10/27 13:04:30;;;;;;;6.95;4.97;;;;;;;14.16;64.34;96551.41;5071980;28;20040;-54
2021/10/27 13:30:48;;;;;;;8.98;5.20;;;;;;;14.00;64.56;96524.06;4986496;28;20055;-47
2021/10/27 13:33:16;;;;;;;;;;;;;;;13.89;63.88;96530.31;4980754;28;20121;-50
2021/10/27 13:35:43;;;;;;;8.40;5.30;;;;;;;13.82;64.59;96514.56;4994987;28;20371;-47
2021/10/27 13:38:10;;;;;;;8.88;5.35;;;;;;;13.76;65.61;96519.41;4993997;28;20563;-49
2021/10/27 13:40:45;;;;;;;7.78;5.55;;;;;;;13.61;66.05;96514.63;4992866;28;20050;-48
2021/10/27 13:46:39;;;;;;;8.40;5.40;;;;;;;13.56;65.99;96514.84;4994589;28;20053;-50
2021/10/27 14:08:23;;;;;;;7.13;5.15;;;;;;;13.23;68.06;96493.91;4994466;28;20034;-49
2021/10/27 14:11:05;;;;;;;8.70;5.68;;;;;;;13.20;67.62;96486.44;4987319;28;20046;-47
2021/10/27 15:21:38;;;;;;;15.38;11.18;;;;;;;12.67;74.08;96490.72;4993272;28;20052;-46
2021/10/27 15:40:25;;;;;;;18.77;13.18;;;;;;;12.50;75.49;96477.31;4986096;28;20042;-49
2021/10/27 15:50:56;;;;;;;18.88;15.48;;;;;;;11.96;78.54;96488.81;4983731;28;20073;-48
2021/10/27 15:53:23;;;;;;;23.35;16.50;;;;;;;12.22;77.16;96477.81;4991916;28;20084;-51
2021/10/27 15:55:50;;;;;;;18.92;15.60;;;;;;;12.30;76.40;96481.59;4991947;28;20050;-50
2021/10/27 15:58:17;;;;;;;21.85;15.52;;;;;;;12.35;76.41;96478.69;4991898;28;20042;-49
2021/10/27 16:00:45;;;;;;;18.13;15.18;;;;;;;12.00;78.33;96478.91;4987732;28;20495;-52
2021/10/27 16:03:15;;;;;;;19.55;15.32;;;;;;;12.05;78.03;96481.41;5005621;28;20495;-50
2021/10/27 16:05:45;;;;;;;20.60;16.17;;;;;;;11.76;79.38;96479.47;5007500;28;20068;-48
2021/10/27 16:08:15;;;;;;;23.50;16.50;;;;;;;11.70;79.97;96475.38;4991936;28;20046;-49
2021/10/27 16:10:43;;;;;;;23.60;16.35;;;;;;;11.72;79.97;96478.53;4976182;28;20057;-49
2021/10/27 16:13:10;;;;;;;22.25;16.52;;;;;;;11.78;79.69;96481.84;4989562;28;20121;-52
2021/10/27 16:15:39;;;;;;;22.70;16.90;;;;;;;11.80;79.76;96475.00;4991969;28;20042;-48
2021/10/27 16:18:12;;;;;;;21.20;16.17;;;;;;;11.53;80.85;96480.84;4983906;28;20064;-49
2021/10/27 16:20:43;;;;;;;24.52;17.63;;;;;;;11.40;81.82;96475.28;4992169;28;20053;-46
2021/10/27 16:23:14;;;;;;;24.92;18.25;;;;;;;11.44;81.27;96473.56;4990491;28;20070;-50
2021/10/27 16:25:42;;;;;;;22.63;18.00;;;;;;;11.65;80.08;96489.09;4990492;28;20500;-47
2021/10/27 16:28:10;;;;;;;23.83;18.50;;;;;;;11.26;81.99;96477.44;4988898;28;20054;-51
2021/10/27 16:30:37;;;;;;;25.70;19.05;;;;;;;11.09;83.26;96480.97;5001879;28;20081;-46
2021/10/27 16:33:04;;;;;;;24.67;18.33;;;;;;;11.21;82.46;96478.41;4990163;28;20042;-51
2021/10/27 16:35:34;;;;;;;24.35;18.55;;;;;;;11.27;82.22;96480.94;4989379;28;20043;-49
2021/10/27 16:38:02;;;;;;;23.42;18.02;;;;;;;11.36;81.21;96474.34;4994081;28;20057;-52
2021/10/27 16:40:30;;;;;;;23.92;18.45;;;;;;;11.37;81.31;96472.44;4993840;28;20054;-45
2021/10/27 16:42:59;;;;;;;25.15;19.30;;;;;;;11.47;80.87;96474.78;4997312;28;20056;-45
2021/10/27 16:45:28;;;;;;;25.60;19.92;;;;;;;11.69;79.65;96474.53;4996115;28;20412;-50
2021/10/27 16:47:56;;;;;;;25.27;19.58;;;;;;;11.16;82.16;96478.56;4998257;28;20065;-50